Terminal Aerodrome Forecast
Issued by NWS Detroit/Pontiac, MI

Home | Current Version | Previous Version | Text Only | Print | Product List | Glossary On
Versions: 1 2 3 4 5 6 7 8 9 10 11 12 13 14
062
FTUS43 KDTX 251720
TAFFNT
TAF
KFNT 251720Z 2518/2618 15010KT P6SM SCT035 SCT090
     FM260200 13007KT P6SM SCT090 BKN150
     FM260800 14005KT 6SM BR BKN060
     FM261300 15010KT P6SM SCT090 BKN150
     FM261700 17014G24KT P6SM SCT150=

USA.gov is the U.S. government's official web portal to all federal, state and local government web resources and services.